sensor_id;sensor_type;location;lat;lon;timestamp;P1;durP1;ratioP1;P2;durP2;ratioP2
22967;SDS011;11650;48.106;-1.696;2023-08-07T00:00:21;7.30;;;2.50;;
22967;SDS011;11650;48.106;-1.696;2023-08-07T00:02:47;9.03;;;3.00;;
22967;SDS011;11650;48.106;-1.696;2023-08-07T00:05:13;10.20;;;2.83;;
22967;SDS011;11650;48.106;-1.696;2023-08-07T00:07:38;8.20;;;3.07;;
22967;SDS011;11650;48.106;-1.696;2023-08-07T00:10:04;10.10;;;3.07;;
22967;SDS011;11650;48.106;-1.696;2023-08-07T00:12:30;9.97;;;3.10;;
22967;SDS011;11650;48.106;-1.696;2023-08-07T00:14:56;8.00;;;2.77;;
22967;SDS011;11650;48.106;-1.696;2023-08-07T00:17:21;9.27;;;3.30;;
22967;SDS011;11650;48.106;-1.696;2023-08-07T00:19:47;8.60;;;3.33;;
22967;SDS011;11650;48.106;-1.696;2023-08-07T00:22:13;6.60;;;2.60;;
22967;SDS011;11650;48.106;-1.696;2023-08-07T00:24:38;12.77;;;3.10;;
22967;SDS011;11650;48.106;-1.696;2023-08-07T00:27:04;8.13;;;3.07;;
22967;SDS011;11650;48.106;-1.696;2023-08-07T00:29:31;10.97;;;3.00;;
22967;SDS011;11650;48.106;-1.696;2023-08-07T00:31:57;12.20;;;3.67;;
22967;SDS011;11650;48.106;-1.696;2023-08-07T00:34:23;9.17;;;3.03;;
22967;SDS011;11650;48.106;-1.696;2023-08-07T00:36:49;12.13;;;3.30;;
22967;SDS011;11650;48.106;-1.696;2023-08-07T00:39:15;10.73;;;3.83;;
22967;SDS011;11650;48.106;-1.696;2023-08-07T00:41:41;8.93;;;3.10;;
22967;SDS011;11650;48.106;-1.696;2023-08-07T00:44:06;9.87;;;3.20;;
22967;SDS011;11650;48.106;-1.696;2023-08-07T00:46:32;9.70;;;2.90;;
22967;SDS011;11650;48.106;-1.696;2023-08-07T00:48:58;10.30;;;3.13;;
22967;SDS011;11650;48.106;-1.696;2023-08-07T00:51:24;8.27;;;2.87;;
22967;SDS011;11650;48.106;-1.696;2023-08-07T00:53:49;10.70;;;3.30;;
22967;SDS011;11650;48.106;-1.696;2023-08-07T00:56:16;10.87;;;3.70;;
22967;SDS011;11650;48.106;-1.696;2023-08-07T00:58:42;10.83;;;3.50;;
22967;SDS011;11650;48.106;-1.696;2023-08-07T01:01:08;6.33;;;3.03;;
22967;SDS011;11650;48.106;-1.696;2023-08-07T01:03:34;10.17;;;3.33;;
22967;SDS011;11650;48.106;-1.696;2023-08-07T01:06:00;13.40;;;2.87;;
22967;SDS011;11650;48.106;-1.696;2023-08-07T01:08:26;6.50;;;3.17;;
22967;SDS011;11650;48.106;-1.696;2023-08-07T01:19:25;10.33;;;3.23;;
22967;SDS011;11650;48.106;-1.696;2023-08-07T01:22:08;10.40;;;3.30;;
22967;SDS011;11650;48.106;-1.696;2023-08-07T01:24:39;9.50;;;3.17;;
22967;SDS011;11650;48.106;-1.696;2023-08-07T01:29:34;9.13;;;3.43;;
22967;SDS011;11650;48.106;-1.696;2023-08-07T01:32:07;18.57;;;3.90;;
22967;SDS011;11650;48.106;-1.696;2023-08-07T01:34:36;13.63;;;3.87;;
22967;SDS011;11650;48.106;-1.696;2023-08-07T01:37:05;11.10;;;3.57;;
22967;SDS011;11650;48.106;-1.696;2023-08-07T01:39:34;12.07;;;3.60;;
22967;SDS011;11650;48.106;-1.696;2023-08-07T01:42:02;13.40;;;3.83;;
22967;SDS011;11650;48.106;-1.696;2023-08-07T01:44:29;12.83;;;4.10;;
22967;SDS011;11650;48.106;-1.696;2023-08-07T01:46:55;10.07;;;3.30;;
22967;SDS011;11650;48.106;-1.696;2023-08-07T01:49:21;9.00;;;4.03;;
22967;SDS011;11650;48.106;-1.696;2023-08-07T01:51:47;12.87;;;3.83;;
22967;SDS011;11650;48.106;-1.696;2023-08-07T01:54:13;12.07;;;4.10;;
22967;SDS011;11650;48.106;-1.696;2023-08-07T01:56:38;12.43;;;3.77;;
22967;SDS011;11650;48.106;-1.696;2023-08-07T01:59:04;10.13;;;3.73;;
22967;SDS011;11650;48.106;-1.696;2023-08-07T02:01:30;13.73;;;4.27;;
22967;SDS011;11650;48.106;-1.696;2023-08-07T02:03:55;10.93;;;3.83;;
22967;SDS011;11650;48.106;-1.696;2023-08-07T02:06:21;14.03;;;3.87;;
22967;SDS011;11650;48.106;-1.696;2023-08-07T02:08:46;13.33;;;4.03;;
22967;SDS011;11650;48.106;-1.696;2023-08-07T02:11:12;14.20;;;4.23;;
22967;SDS011;11650;48.106;-1.696;2023-08-07T02:13:38;14.60;;;3.90;;
22967;SDS011;11650;48.106;-1.696;2023-08-07T02:16:03;14.10;;;4.10;;
22967;SDS011;11650;48.106;-1.696;2023-08-07T02:18:29;14.33;;;3.73;;
22967;SDS011;11650;48.106;-1.696;2023-08-07T02:20:55;9.73;;;4.10;;
22967;SDS011;11650;48.106;-1.696;2023-08-07T02:23:20;20.23;;;4.60;;
22967;SDS011;11650;48.106;-1.696;2023-08-07T02:25:46;10.80;;;3.50;;
22967;SDS011;11650;48.106;-1.696;2023-08-07T02:28:13;15.87;;;4.30;;
22967;SDS011;11650;48.106;-1.696;2023-08-07T02:30:38;10.90;;;4.03;;
22967;SDS011;11650;48.106;-1.696;2023-08-07T02:33:04;9.77;;;4.00;;
22967;SDS011;11650;48.106;-1.696;2023-08-07T02:35:29;10.33;;;3.93;;
22967;SDS011;11650;48.106;-1.696;2023-08-07T02:37:55;12.80;;;4.33;;
22967;SDS011;11650;48.106;-1.696;2023-08-07T02:40:21;11.57;;;4.10;;
22967;SDS011;11650;48.106;-1.696;2023-08-07T02:42:46;10.57;;;4.00;;
22967;SDS011;11650;48.106;-1.696;2023-08-07T02:45:12;14.00;;;3.97;;
22967;SDS011;11650;48.106;-1.696;2023-08-07T02:47:37;18.40;;;4.00;;
22967;SDS011;11650;48.106;-1.696;2023-08-07T02:50:03;14.43;;;4.37;;
22967;SDS011;11650;48.106;-1.696;2023-08-07T02:52:29;13.20;;;4.53;;
22967;SDS011;11650;48.106;-1.696;2023-08-07T02:54:55;12.67;;;5.00;;
22967;SDS011;11650;48.106;-1.696;2023-08-07T02:57:20;15.60;;;4.20;;
22967;SDS011;11650;48.106;-1.696;2023-08-07T02:59:46;12.57;;;4.13;;
22967;SDS011;11650;48.106;-1.696;2023-08-07T03:02:12;14.63;;;4.57;;
22967;SDS011;11650;48.106;-1.696;2023-08-07T03:04:37;11.33;;;4.40;;
22967;SDS011;11650;48.106;-1.696;2023-08-07T03:07:03;10.17;;;4.27;;
22967;SDS011;11650;48.106;-1.696;2023-08-07T03:09:29;15.83;;;5.20;;
22967;SDS011;11650;48.106;-1.696;2023-08-07T03:11:54;15.17;;;4.67;;
22967;SDS011;11650;48.106;-1.696;2023-08-07T03:14:20;15.93;;;4.60;;
22967;SDS011;11650;48.106;-1.696;2023-08-07T03:16:46;14.43;;;4.67;;
22967;SDS011;11650;48.106;-1.696;2023-08-07T03:19:11;15.00;;;4.80;;
22967;SDS011;11650;48.106;-1.696;2023-08-07T03:21:37;10.50;;;4.70;;
22967;SDS011;11650;48.106;-1.696;2023-08-07T03:24:03;12.57;;;4.60;;
22967;SDS011;11650;48.106;-1.696;2023-08-07T03:26:29;14.20;;;4.70;;
22967;SDS011;11650;48.106;-1.696;2023-08-07T03:28:54;12.77;;;4.90;;
22967;SDS011;11650;48.106;-1.696;2023-08-07T03:31:20;16.07;;;4.87;;
22967;SDS011;11650;48.106;-1.696;2023-08-07T03:33:46;16.80;;;4.80;;
22967;SDS011;11650;48.106;-1.696;2023-08-07T03:36:11;13.77;;;5.00;;
22967;SDS011;11650;48.106;-1.696;2023-08-07T03:38:37;18.20;;;5.03;;
22967;SDS011;11650;48.106;-1.696;2023-08-07T03:41:03;14.60;;;4.87;;
22967;SDS011;11650;48.106;-1.696;2023-08-07T03:43:28;17.80;;;4.97;;
22967;SDS011;11650;48.106;-1.696;2023-08-07T03:45:57;13.57;;;5.30;;
22967;SDS011;11650;48.106;-1.696;2023-08-07T03:48:23;14.10;;;4.80;;
22967;SDS011;11650;48.106;-1.696;2023-08-07T03:50:48;16.47;;;5.33;;
22967;SDS011;11650;48.106;-1.696;2023-08-07T03:53:14;22.10;;;5.30;;
22967;SDS011;11650;48.106;-1.696;2023-08-07T03:55:40;12.10;;;5.33;;
22967;SDS011;11650;48.106;-1.696;2023-08-07T03:58:07;14.60;;;5.13;;
22967;SDS011;11650;48.106;-1.696;2023-08-07T04:00:32;18.70;;;5.47;;
22967;SDS011;11650;48.106;-1.696;2023-08-07T04:02:58;18.63;;;5.60;;
22967;SDS011;11650;48.106;-1.696;2023-08-07T04:05:24;16.30;;;5.90;;
22967;SDS011;11650;48.106;-1.696;2023-08-07T04:07:49;17.77;;;5.43;;
22967;SDS011;11650;48.106;-1.696;2023-08-07T04:10:15;12.77;;;4.97;;
22967;SDS011;11650;48.106;-1.696;2023-08-07T04:12:41;16.37;;;5.50;;
22967;SDS011;11650;48.106;-1.696;2023-08-07T04:15:06;10.17;;;5.30;;
22967;SDS011;11650;48.106;-1.696;2023-08-07T04:17:33;15.77;;;5.43;;
22967;SDS011;11650;48.106;-1.696;2023-08-07T04:19:59;11.97;;;5.20;;
22967;SDS011;11650;48.106;-1.696;2023-08-07T04:22:25;13.73;;;6.10;;
22967;SDS011;11650;48.106;-1.696;2023-08-07T04:24:50;14.70;;;5.80;;
22967;SDS011;11650;48.106;-1.696;2023-08-07T04:27:16;17.03;;;5.50;;
22967;SDS011;11650;48.106;-1.696;2023-08-07T04:29:42;21.50;;;6.03;;
22967;SDS011;11650;48.106;-1.696;2023-08-07T04:32:08;9.10;;;5.20;;
22967;SDS011;11650;48.106;-1.696;2023-08-07T04:34:33;16.53;;;5.50;;
22967;SDS011;11650;48.106;-1.696;2023-08-07T04:37:00;16.90;;;5.70;;
22967;SDS011;11650;48.106;-1.696;2023-08-07T04:39:25;13.07;;;5.37;;
22967;SDS011;11650;48.106;-1.696;2023-08-07T04:41:51;15.53;;;5.70;;
22967;SDS011;11650;48.106;-1.696;2023-08-07T04:44:17;12.73;;;5.43;;
22967;SDS011;11650;48.106;-1.696;2023-08-07T04:46:43;14.13;;;6.63;;
22967;SDS011;11650;48.106;-1.696;2023-08-07T04:49:08;22.83;;;6.90;;
22967;SDS011;11650;48.106;-1.696;2023-08-07T04:51:34;16.77;;;6.10;;
22967;SDS011;11650;48.106;-1.696;2023-08-07T04:53:59;17.97;;;7.00;;
22967;SDS011;11650;48.106;-1.696;2023-08-07T04:56:25;20.17;;;6.33;;
22967;SDS011;11650;48.106;-1.696;2023-08-07T04:58:51;16.37;;;6.17;;
22967;SDS011;11650;48.106;-1.696;2023-08-07T05:01:16;19.30;;;6.50;;
22967;SDS011;11650;48.106;-1.696;2023-08-07T05:03:42;15.17;;;6.77;;
22967;SDS011;11650;48.106;-1.696;2023-08-07T05:06:07;14.03;;;6.70;;
22967;SDS011;11650;48.106;-1.696;2023-08-07T05:08:33;17.37;;;6.30;;
22967;SDS011;11650;48.106;-1.696;2023-08-07T05:10:59;16.13;;;6.20;;
22967;SDS011;11650;48.106;-1.696;2023-08-07T05:13:24;19.67;;;7.30;;
22967;SDS011;11650;48.106;-1.696;2023-08-07T05:15:50;17.93;;;7.83;;
22967;SDS011;11650;48.106;-1.696;2023-08-07T05:18:16;19.20;;;7.17;;
22967;SDS011;11650;48.106;-1.696;2023-08-07T05:20:42;19.30;;;6.80;;
22967;SDS011;11650;48.106;-1.696;2023-08-07T05:23:08;16.67;;;7.07;;
22967;SDS011;11650;48.106;-1.696;2023-08-07T05:25:34;22.37;;;8.13;;
22967;SDS011;11650;48.106;-1.696;2023-08-07T05:27:59;19.30;;;8.37;;
22967;SDS011;11650;48.106;-1.696;2023-08-07T05:30:25;27.90;;;8.73;;
22967;SDS011;11650;48.106;-1.696;2023-08-07T05:32:50;40.33;;;9.33;;
22967;SDS011;11650;48.106;-1.696;2023-08-07T05:35:16;23.53;;;9.37;;
22967;SDS011;11650;48.106;-1.696;2023-08-07T05:37:42;27.50;;;9.23;;
22967;SDS011;11650;48.106;-1.696;2023-08-07T05:40:07;40.77;;;9.60;;
22967;SDS011;11650;48.106;-1.696;2023-08-07T05:42:34;54.73;;;10.63;;
22967;SDS011;11650;48.106;-1.696;2023-08-07T05:44:59;51.83;;;9.60;;
22967;SDS011;11650;48.106;-1.696;2023-08-07T05:47:25;33.63;;;10.17;;
22967;SDS011;11650;48.106;-1.696;2023-08-07T05:49:51;38.70;;;10.13;;
22967;SDS011;11650;48.106;-1.696;2023-08-07T05:52:17;21.00;;;9.37;;
22967;SDS011;11650;48.106;-1.696;2023-08-07T05:54:43;28.57;;;8.80;;
22967;SDS011;11650;48.106;-1.696;2023-08-07T05:57:09;80.70;;;10.93;;
22967;SDS011;11650;48.106;-1.696;2023-08-07T05:59:35;46.27;;;10.47;;
22967;SDS011;11650;48.106;-1.696;2023-08-07T06:02:02;50.30;;;8.90;;
22967;SDS011;11650;48.106;-1.696;2023-08-07T06:04:28;31.70;;;8.37;;
22967;SDS011;11650;48.106;-1.696;2023-08-07T06:06:54;28.87;;;8.40;;
22967;SDS011;11650;48.106;-1.696;2023-08-07T06:09:19;19.83;;;7.47;;
22967;SDS011;11650;48.106;-1.696;2023-08-07T06:11:46;44.27;;;9.17;;
22967;SDS011;11650;48.106;-1.696;2023-08-07T06:14:12;38.37;;;8.73;;
22967;SDS011;11650;48.106;-1.696;2023-08-07T06:16:38;51.97;;;9.20;;
22967;SDS011;11650;48.106;-1.696;2023-08-07T06:19:04;28.40;;;9.30;;
22967;SDS011;11650;48.106;-1.696;2023-08-07T06:21:29;45.00;;;9.63;;
22967;SDS011;11650;48.106;-1.696;2023-08-07T06:23:55;111.83;;;10.60;;
22967;SDS011;11650;48.106;-1.696;2023-08-07T06:26:22;24.50;;;9.30;;
22967;SDS011;11650;48.106;-1.696;2023-08-07T06:28:47;28.73;;;10.00;;
22967;SDS011;11650;48.106;-1.696;2023-08-07T06:31:15;19.83;;;9.73;;
22967;SDS011;11650;48.106;-1.696;2023-08-07T06:33:41;19.67;;;8.30;;
22967;SDS011;11650;48.106;-1.696;2023-08-07T06:36:07;40.50;;;9.37;;
22967;SDS011;11650;48.106;-1.696;2023-08-07T06:38:35;23.30;;;8.47;;
22967;SDS011;11650;48.106;-1.696;2023-08-07T06:41:01;25.20;;;9.83;;
22967;SDS011;11650;48.106;-1.696;2023-08-07T06:43:27;15.33;;;8.30;;
22967;SDS011;11650;48.106;-1.696;2023-08-07T06:45:53;20.00;;;8.27;;
22967;SDS011;11650;48.106;-1.696;2023-08-07T06:48:20;15.43;;;8.20;;
22967;SDS011;11650;48.106;-1.696;2023-08-07T06:50:46;20.27;;;8.67;;
22967;SDS011;11650;48.106;-1.696;2023-08-07T06:53:12;18.73;;;8.67;;
22967;SDS011;11650;48.106;-1.696;2023-08-07T06:55:38;20.60;;;8.53;;
22967;SDS011;11650;48.106;-1.696;2023-08-07T06:58:05;15.67;;;7.97;;
22967;SDS011;11650;48.106;-1.696;2023-08-07T07:00:31;18.00;;;7.70;;
22967;SDS011;11650;48.106;-1.696;2023-08-07T07:02:58;17.07;;;7.27;;
22967;SDS011;11650;48.106;-1.696;2023-08-07T07:05:24;14.30;;;7.60;;
22967;SDS011;11650;48.106;-1.696;2023-08-07T07:07:50;16.90;;;7.77;;
22967;SDS011;11650;48.106;-1.696;2023-08-07T07:10:15;14.37;;;6.93;;
22967;SDS011;11650;48.106;-1.696;2023-08-07T07:12:41;18.10;;;7.40;;
22967;SDS011;11650;48.106;-1.696;2023-08-07T07:15:07;15.10;;;7.60;;
22967;SDS011;11650;48.106;-1.696;2023-08-07T07:17:34;15.27;;;7.17;;
22967;SDS011;11650;48.106;-1.696;2023-08-07T07:19:59;19.97;;;7.40;;
22967;SDS011;11650;48.106;-1.696;2023-08-07T07:22:25;14.83;;;7.63;;
22967;SDS011;11650;48.106;-1.696;2023-08-07T07:24:51;13.80;;;7.10;;
22967;SDS011;11650;48.106;-1.696;2023-08-07T07:27:16;17.47;;;7.13;;
22967;SDS011;11650;48.106;-1.696;2023-08-07T07:29:42;18.13;;;6.83;;
22967;SDS011;11650;48.106;-1.696;2023-08-07T07:32:07;13.50;;;6.73;;
22967;SDS011;11650;48.106;-1.696;2023-08-07T07:34:33;15.03;;;7.30;;
22967;SDS011;11650;48.106;-1.696;2023-08-07T07:36:59;13.57;;;6.83;;
22967;SDS011;11650;48.106;-1.696;2023-08-07T07:39:24;17.97;;;6.53;;
22967;SDS011;11650;48.106;-1.696;2023-08-07T07:41:50;13.67;;;6.37;;
22967;SDS011;11650;48.106;-1.696;2023-08-07T07:44:16;17.07;;;6.80;;
22967;SDS011;11650;48.106;-1.696;2023-08-07T07:46:42;13.07;;;6.13;;
22967;SDS011;11650;48.106;-1.696;2023-08-07T07:49:08;16.27;;;6.20;;
22967;SDS011;11650;48.106;-1.696;2023-08-07T07:51:34;18.13;;;7.67;;
22967;SDS011;11650;48.106;-1.696;2023-08-07T07:54:02;13.57;;;6.23;;
22967;SDS011;11650;48.106;-1.696;2023-08-07T07:56:27;14.57;;;6.20;;
22967;SDS011;11650;48.106;-1.696;2023-08-07T07:58:53;18.07;;;6.40;;
22967;SDS011;11650;48.106;-1.696;2023-08-07T08:01:18;15.37;;;6.00;;
22967;SDS011;11650;48.106;-1.696;2023-08-07T08:03:44;14.27;;;6.20;;
22967;SDS011;11650;48.106;-1.696;2023-08-07T08:06:13;13.40;;;5.40;;
22967;SDS011;11650;48.106;-1.696;2023-08-07T08:08:39;15.00;;;5.37;;
22967;SDS011;11650;48.106;-1.696;2023-08-07T08:11:04;15.83;;;5.20;;
22967;SDS011;11650;48.106;-1.696;2023-08-07T08:13:30;14.43;;;5.30;;
22967;SDS011;11650;48.106;-1.696;2023-08-07T08:15:56;14.97;;;4.73;;
22967;SDS011;11650;48.106;-1.696;2023-08-07T08:18:21;14.90;;;4.57;;
22967;SDS011;11650;48.106;-1.696;2023-08-07T08:20:47;13.17;;;4.40;;
22967;SDS011;11650;48.106;-1.696;2023-08-07T08:23:13;10.87;;;3.93;;
22967;SDS011;11650;48.106;-1.696;2023-08-07T08:25:38;13.00;;;3.53;;
22967;SDS011;11650;48.106;-1.696;2023-08-07T08:28:04;14.13;;;3.63;;
22967;SDS011;11650;48.106;-1.696;2023-08-07T08:30:30;14.40;;;3.40;;
22967;SDS011;11650;48.106;-1.696;2023-08-07T08:32:56;10.37;;;3.20;;
22967;SDS011;11650;48.106;-1.696;2023-08-07T08:35:21;15.37;;;2.90;;
22967;SDS011;11650;48.106;-1.696;2023-08-07T08:37:47;17.37;;;3.57;;
22967;SDS011;11650;48.106;-1.696;2023-08-07T08:40:13;8.43;;;2.20;;
22967;SDS011;11650;48.106;-1.696;2023-08-07T08:42:42;6.70;;;2.00;;
22967;SDS011;11650;48.106;-1.696;2023-08-07T08:45:09;8.77;;;3.10;;
22967;SDS011;11650;48.106;-1.696;2023-08-07T08:47:38;12.40;;;2.33;;
22967;SDS011;11650;48.106;-1.696;2023-08-07T08:50:09;9.33;;;2.00;;
22967;SDS011;11650;48.106;-1.696;2023-08-07T08:52:37;9.00;;;2.23;;
22967;SDS011;11650;48.106;-1.696;2023-08-07T08:55:07;8.33;;;2.20;;
22967;SDS011;11650;48.106;-1.696;2023-08-07T08:57:33;7.83;;;2.10;;
22967;SDS011;11650;48.106;-1.696;2023-08-07T09:00:00;9.40;;;1.80;;
22967;SDS011;11650;48.106;-1.696;2023-08-07T09:02:43;5.33;;;1.97;;
22967;SDS011;11650;48.106;-1.696;2023-08-07T09:05:13;7.83;;;1.60;;
22967;SDS011;11650;48.106;-1.696;2023-08-07T09:07:41;7.53;;;1.60;;
22967;SDS011;11650;48.106;-1.696;2023-08-07T09:10:07;6.13;;;1.77;;
22967;SDS011;11650;48.106;-1.696;2023-08-07T09:12:35;6.97;;;2.07;;
22967;SDS011;11650;48.106;-1.696;2023-08-07T09:15:04;4.43;;;1.53;;
22967;SDS011;11650;48.106;-1.696;2023-08-07T09:17:35;8.93;;;2.00;;
22967;SDS011;11650;48.106;-1.696;2023-08-07T09:20:05;5.90;;;1.70;;
22967;SDS011;11650;48.106;-1.696;2023-08-07T09:22:35;7.30;;;1.37;;
22967;SDS011;11650;48.106;-1.696;2023-08-07T09:25:01;6.27;;;1.53;;
22967;SDS011;11650;48.106;-1.696;2023-08-07T09:27:27;5.07;;;1.33;;
22967;SDS011;11650;48.106;-1.696;2023-08-07T09:29:54;7.47;;;1.87;;
22967;SDS011;11650;48.106;-1.696;2023-08-07T09:32:20;6.73;;;1.50;;
22967;SDS011;11650;48.106;-1.696;2023-08-07T09:34:49;7.90;;;1.70;;
22967;SDS011;11650;48.106;-1.696;2023-08-07T09:37:15;7.63;;;1.70;;
22967;SDS011;11650;48.106;-1.696;2023-08-07T09:39:41;8.30;;;1.80;;
22967;SDS011;11650;48.106;-1.696;2023-08-07T09:42:12;5.57;;;1.70;;
22967;SDS011;11650;48.106;-1.696;2023-08-07T09:44:40;6.90;;;1.30;;
22967;SDS011;11650;48.106;-1.696;2023-08-07T09:47:13;6.07;;;1.73;;
22967;SDS011;11650;48.106;-1.696;2023-08-07T09:49:40;8.60;;;1.97;;
22967;SDS011;11650;48.106;-1.696;2023-08-07T09:52:06;5.80;;;1.63;;
22967;SDS011;11650;48.106;-1.696;2023-08-07T09:54:33;9.67;;;1.83;;
22967;SDS011;11650;48.106;-1.696;2023-08-07T09:56:59;6.47;;;1.50;;
22967;SDS011;11650;48.106;-1.696;2023-08-07T09:59:26;4.50;;;1.30;;
22967;SDS011;11650;48.106;-1.696;2023-08-07T10:01:53;4.70;;;1.30;;
22967;SDS011;11650;48.106;-1.696;2023-08-07T10:04:20;4.10;;;1.27;;
22967;SDS011;11650;48.106;-1.696;2023-08-07T10:06:47;8.03;;;1.43;;
22967;SDS011;11650;48.106;-1.696;2023-08-07T10:09:13;7.57;;;1.50;;
22967;SDS011;11650;48.106;-1.696;2023-08-07T10:11:39;5.37;;;1.53;;
22967;SDS011;11650;48.106;-1.696;2023-08-07T10:14:06;5.20;;;1.30;;
22967;SDS011;11650;48.106;-1.696;2023-08-07T10:16:32;5.27;;;1.63;;
22967;SDS011;11650;48.106;-1.696;2023-08-07T10:19:03;4.03;;;1.30;;
22967;SDS011;11650;48.106;-1.696;2023-08-07T10:21:28;4.20;;;1.20;;
22967;SDS011;11650;48.106;-1.696;2023-08-07T10:23:54;6.03;;;1.57;;
22967;SDS011;11650;48.106;-1.696;2023-08-07T10:26:22;4.07;;;1.43;;
22967;SDS011;11650;48.106;-1.696;2023-08-07T10:28:49;4.20;;;1.43;;
22967;SDS011;11650;48.106;-1.696;2023-08-07T10:31:16;6.33;;;1.37;;
22967;SDS011;11650;48.106;-1.696;2023-08-07T10:33:43;4.93;;;1.60;;
22967;SDS011;11650;48.106;-1.696;2023-08-07T10:36:09;5.07;;;1.17;;
22967;SDS011;11650;48.106;-1.696;2023-08-07T10:38:36;4.30;;;1.10;;
22967;SDS011;11650;48.106;-1.696;2023-08-07T10:41:23;5.33;;;1.40;;
22967;SDS011;11650;48.106;-1.696;2023-08-07T10:43:48;4.33;;;1.20;;
22967;SDS011;11650;48.106;-1.696;2023-08-07T10:46:19;4.03;;;1.30;;
22967;SDS011;11650;48.106;-1.696;2023-08-07T10:48:53;4.47;;;1.23;;
22967;SDS011;11650;48.106;-1.696;2023-08-07T10:51:23;5.40;;;1.50;;
22967;SDS011;11650;48.106;-1.696;2023-08-07T10:53:54;5.47;;;1.50;;
22967;SDS011;11650;48.106;-1.696;2023-08-07T10:56:31;4.63;;;1.20;;
22967;SDS011;11650;48.106;-1.696;2023-08-07T10:59:07;4.03;;;1.30;;
22967;SDS011;11650;48.106;-1.696;2023-08-07T11:04:07;6.47;;;1.37;;
22967;SDS011;11650;48.106;-1.696;2023-08-07T11:06:34;5.30;;;1.33;;
22967;SDS011;11650;48.106;-1.696;2023-08-07T11:09:02;4.73;;;0.93;;
22967;SDS011;11650;48.106;-1.696;2023-08-07T11:11:39;6.00;;;1.57;;
22967;SDS011;11650;48.106;-1.696;2023-08-07T11:14:11;3.37;;;0.93;;
22967;SDS011;11650;48.106;-1.696;2023-08-07T11:16:38;6.50;;;1.20;;
22967;SDS011;11650;48.106;-1.696;2023-08-07T11:19:04;3.40;;;1.20;;
22967;SDS011;11650;48.106;-1.696;2023-08-07T11:21:31;3.80;;;1.30;;
22967;SDS011;11650;48.106;-1.696;2023-08-07T11:23:57;6.20;;;1.43;;
22967;SDS011;11650;48.106;-1.696;2023-08-07T11:26:23;4.27;;;1.33;;
22967;SDS011;11650;48.106;-1.696;2023-08-07T11:28:51;4.63;;;1.20;;
22967;SDS011;11650;48.106;-1.696;2023-08-07T11:31:20;3.37;;;1.17;;
22967;SDS011;11650;48.106;-1.696;2023-08-07T11:33:52;3.33;;;1.00;;
22967;SDS011;11650;48.106;-1.696;2023-08-07T11:36:25;4.43;;;1.20;;
22967;SDS011;11650;48.106;-1.696;2023-08-07T11:38:50;3.73;;;1.20;;
22967;SDS011;11650;48.106;-1.696;2023-08-07T11:41:16;3.70;;;1.10;;
22967;SDS011;11650;48.106;-1.696;2023-08-07T11:43:43;4.53;;;1.30;;
22967;SDS011;11650;48.106;-1.696;2023-08-07T11:46:10;4.50;;;1.20;;
22967;SDS011;11650;48.106;-1.696;2023-08-07T11:48:38;7.33;;;1.53;;
22967;SDS011;11650;48.106;-1.696;2023-08-07T11:51:05;3.47;;;1.13;;
22967;SDS011;11650;48.106;-1.696;2023-08-07T11:53:33;4.20;;;1.47;;
22967;SDS011;11650;48.106;-1.696;2023-08-07T11:58:28;5.43;;;1.20;;
22967;SDS011;11650;48.106;-1.696;2023-08-07T12:01:06;3.43;;;1.30;;
22967;SDS011;11650;48.106;-1.696;2023-08-07T12:03:37;3.27;;;1.23;;
22967;SDS011;11650;48.106;-1.696;2023-08-07T12:06:04;3.37;;;1.20;;
22967;SDS011;11650;48.106;-1.696;2023-08-07T12:08:32;2.50;;;0.97;;
22967;SDS011;11650;48.106;-1.696;2023-08-07T12:11:00;4.90;;;1.20;;
22967;SDS011;11650;48.106;-1.696;2023-08-07T12:13:30;4.17;;;1.40;;
22967;SDS011;11650;48.106;-1.696;2023-08-07T12:15:57;5.30;;;1.17;;
22967;SDS011;11650;48.106;-1.696;2023-08-07T12:18:23;5.37;;;1.47;;
22967;SDS011;11650;48.106;-1.696;2023-08-07T12:20:51;4.30;;;1.40;;
22967;SDS011;11650;48.106;-1.696;2023-08-07T12:23:24;4.63;;;1.10;;
22967;SDS011;11650;48.106;-1.696;2023-08-07T12:25:50;4.07;;;1.40;;
22967;SDS011;11650;48.106;-1.696;2023-08-07T12:28:17;2.97;;;1.00;;
22967;SDS011;11650;48.106;-1.696;2023-08-07T12:30:46;5.67;;;1.43;;
22967;SDS011;11650;48.106;-1.696;2023-08-07T12:33:13;4.03;;;1.40;;
22967;SDS011;11650;48.106;-1.696;2023-08-07T12:35:39;3.03;;;1.07;;
22967;SDS011;11650;48.106;-1.696;2023-08-07T12:38:06;2.33;;;1.13;;
22967;SDS011;11650;48.106;-1.696;2023-08-07T12:40:32;3.00;;;1.33;;
22967;SDS011;11650;48.106;-1.696;2023-08-07T12:42:58;2.63;;;1.30;;
22967;SDS011;11650;48.106;-1.696;2023-08-07T12:45:24;2.77;;;1.27;;
22967;SDS011;11650;48.106;-1.696;2023-08-07T12:47:50;4.87;;;1.23;;
22967;SDS011;11650;48.106;-1.696;2023-08-07T12:50:15;3.63;;;1.10;;
22967;SDS011;11650;48.106;-1.696;2023-08-07T12:52:41;4.53;;;1.40;;
22967;SDS011;11650;48.106;-1.696;2023-08-07T12:55:08;4.43;;;1.40;;
22967;SDS011;11650;48.106;-1.696;2023-08-07T12:57:36;5.93;;;1.20;;
22967;SDS011;11650;48.106;-1.696;2023-08-07T13:00:03;4.93;;;1.17;;
22967;SDS011;11650;48.106;-1.696;2023-08-07T13:02:29;3.63;;;1.27;;
22967;SDS011;11650;48.106;-1.696;2023-08-07T13:04:55;7.03;;;1.50;;
22967;SDS011;11650;48.106;-1.696;2023-08-07T13:07:22;4.47;;;1.53;;
22967;SDS011;11650;48.106;-1.696;2023-08-07T13:09:48;2.87;;;1.03;;
22967;SDS011;11650;48.106;-1.696;2023-08-07T13:12:13;3.57;;;1.43;;
22967;SDS011;11650;48.106;-1.696;2023-08-07T13:14:39;2.93;;;1.10;;
22967;SDS011;11650;48.106;-1.696;2023-08-07T13:17:04;5.37;;;1.20;;
22967;SDS011;11650;48.106;-1.696;2023-08-07T13:19:30;3.37;;;1.17;;
22967;SDS011;11650;48.106;-1.696;2023-08-07T13:21:56;5.40;;;1.40;;
22967;SDS011;11650;48.106;-1.696;2023-08-07T13:24:21;3.23;;;1.40;;
22967;SDS011;11650;48.106;-1.696;2023-08-07T13:26:47;9.07;;;1.53;;
22967;SDS011;11650;48.106;-1.696;2023-08-07T13:29:13;3.50;;;1.30;;
22967;SDS011;11650;48.106;-1.696;2023-08-07T13:31:39;4.50;;;1.20;;
22967;SDS011;11650;48.106;-1.696;2023-08-07T13:34:11;4.03;;;1.20;;
22967;SDS011;11650;48.106;-1.696;2023-08-07T13:36:37;4.23;;;1.10;;
22967;SDS011;11650;48.106;-1.696;2023-08-07T13:39:06;3.70;;;1.00;;
22967;SDS011;11650;48.106;-1.696;2023-08-07T13:41:32;3.70;;;1.20;;
22967;SDS011;11650;48.106;-1.696;2023-08-07T13:43:58;3.70;;;1.20;;
22967;SDS011;11650;48.106;-1.696;2023-08-07T13:46:24;4.43;;;1.30;;
22967;SDS011;11650;48.106;-1.696;2023-08-07T13:48:50;3.97;;;1.30;;
22967;SDS011;11650;48.106;-1.696;2023-08-07T13:51:16;4.87;;;1.20;;
22967;SDS011;11650;48.106;-1.696;2023-08-07T13:53:43;5.03;;;1.43;;
22967;SDS011;11650;48.106;-1.696;2023-08-07T13:56:09;3.67;;;1.00;;
22967;SDS011;11650;48.106;-1.696;2023-08-07T13:58:37;5.03;;;1.27;;
22967;SDS011;11650;48.106;-1.696;2023-08-07T14:01:04;3.20;;;1.20;;
22967;SDS011;11650;48.106;-1.696;2023-08-07T14:03:30;3.38;;;1.10;;
22967;SDS011;11650;48.106;-1.696;2023-08-07T14:05:56;2.75;;;1.20;;
22967;SDS011;11650;48.106;-1.696;2023-08-07T14:08:21;4.28;;;1.17;;
22967;SDS011;11650;48.106;-1.696;2023-08-07T14:10:47;2.72;;;1.20;;
22967;SDS011;11650;48.106;-1.696;2023-08-07T14:13:13;2.40;;;1.17;;
22967;SDS011;11650;48.106;-1.696;2023-08-07T14:15:39;2.83;;;1.10;;
22967;SDS011;11650;48.106;-1.696;2023-08-07T14:18:05;2.90;;;1.15;;
22967;SDS011;11650;48.106;-1.696;2023-08-07T14:20:31;2.53;;;1.00;;
22967;SDS011;11650;48.106;-1.696;2023-08-07T14:22:56;2.63;;;1.15;;
22967;SDS011;11650;48.106;-1.696;2023-08-07T14:25:22;4.70;;;1.20;;
22967;SDS011;11650;48.106;-1.696;2023-08-07T14:27:48;4.10;;;1.17;;
22967;SDS011;11650;48.106;-1.696;2023-08-07T14:30:14;2.78;;;1.02;;
22967;SDS011;11650;48.106;-1.696;2023-08-07T14:32:40;3.85;;;1.10;;
22967;SDS011;11650;48.106;-1.696;2023-08-07T14:35:07;2.45;;;1.20;;
22967;SDS011;11650;48.106;-1.696;2023-08-07T14:37:33;2.72;;;1.08;;
22967;SDS011;11650;48.106;-1.696;2023-08-07T14:39:59;3.03;;;1.10;;